Myra, West Virginia
Current Conditions -  °F | °C
As of 1:51 AM on Thursday 23 Oct 2014 (Local Time) from KHTS Reporting Station
Overcast Overcast  
Wind Chill: 48°   Ceiling: 3100
Heat Index: 48°   Visibility: 10mi
Dew Point: 40°   Wind: 3mph
Humidity: 74%   Direction: 320°NW
Pressure: 30.21"   Gusts: NA
Location:  38.22°N, 82.11°W
Report Text: KHTS 230551Z AUTO 32003KT 10SM OVC031 09/04 A3021 RMK AO2 SLP229 T00890044 10100 20089 58009 TSNO
Loading
Personal Weather Stations






























Interactive Weather Map New forecast layout! Learn more

10-Day Weather Forecast

Advertisements
Track Severe Weather on mobile